Pecos National Monument, New Mexico
Current Conditions -  °F | °C
As of 1:53 AM on Friday 24 Oct 2014 (Local Time) from KLVS Reporting Station
Clear Clear  
Wind Chill: 41°   Ceiling: Unl
Heat Index: 46°   Visibility: 10mi
Dew Point: 29°   Wind: 9mph
Humidity: 51%   Direction: 360°N
Pressure: 30.31"   Gusts: NA
Location:  35.582°N, 105.558°W
Report Text: KLVS 240753Z AUTO 36008KT 10SM CLR 08/M02 A3031 RMK AO2 SLP181 T00781017
Loading
Personal Weather Stations






























Interactive Weather Map
Tropical Storm Tracking
New forecast layout! Learn more

10-Day Weather Forecast

Advertisements
Track Severe Weather on mobile